sensor_id;sensor_type;location;lat;lon;timestamp;P1;durP1;ratioP1;P2;durP2;ratioP2
64842;SDS011;51310;52.198;5.422;2022-12-20T00:01:19;6.22;;;3.05;;
64842;SDS011;51310;52.198;5.422;2022-12-20T00:03:53;8.73;;;3.05;;
64842;SDS011;51310;52.198;5.422;2022-12-20T00:06:24;6.03;;;2.65;;
64842;SDS011;51310;52.198;5.422;2022-12-20T00:08:57;6.38;;;2.60;;
64842;SDS011;51310;52.198;5.422;2022-12-20T00:11:26;4.60;;;2.80;;
64842;SDS011;51310;52.198;5.422;2022-12-20T00:13:53;6.47;;;3.03;;
64842;SDS011;51310;52.198;5.422;2022-12-20T00:16:21;5.28;;;3.25;;
64842;SDS011;51310;52.198;5.422;2022-12-20T00:18:53;5.80;;;3.13;;
64842;SDS011;51310;52.198;5.422;2022-12-20T00:21:25;5.15;;;2.58;;
64842;SDS011;51310;52.198;5.422;2022-12-20T00:23:53;7.25;;;3.00;;
64842;SDS011;51310;52.198;5.422;2022-12-20T00:26:20;4.80;;;2.60;;
64842;SDS011;51310;52.198;5.422;2022-12-20T00:28:50;5.85;;;2.70;;
64842;SDS011;51310;52.198;5.422;2022-12-20T00:31:18;6.22;;;2.50;;
64842;SDS011;51310;52.198;5.422;2022-12-20T00:33:46;5.57;;;2.80;;
64842;SDS011;51310;52.198;5.422;2022-12-20T00:36:15;4.88;;;2.60;;
64842;SDS011;51310;52.198;5.422;2022-12-20T00:38:43;4.68;;;2.75;;
64842;SDS011;51310;52.198;5.422;2022-12-20T00:41:13;4.97;;;2.53;;
64842;SDS011;51310;52.198;5.422;2022-12-20T00:43:50;6.00;;;2.47;;
64842;SDS011;51310;52.198;5.422;2022-12-20T00:46:17;4.23;;;2.47;;
64842;SDS011;51310;52.198;5.422;2022-12-20T00:48:45;5.80;;;2.75;;
64842;SDS011;51310;52.198;5.422;2022-12-20T00:51:15;4.30;;;2.33;;
64842;SDS011;51310;52.198;5.422;2022-12-20T00:53:47;4.75;;;2.58;;
64842;SDS011;51310;52.198;5.422;2022-12-20T00:56:13;5.63;;;2.70;;
64842;SDS011;51310;52.198;5.422;2022-12-20T00:58:39;5.47;;;2.40;;
64842;SDS011;51310;52.198;5.422;2022-12-20T01:01:15;4.53;;;2.50;;
64842;SDS011;51310;52.198;5.422;2022-12-20T01:03:46;6.53;;;2.40;;
64842;SDS011;51310;52.198;5.422;2022-12-20T01:06:13;5.80;;;2.45;;
64842;SDS011;51310;52.198;5.422;2022-12-20T01:08:40;6.63;;;2.75;;
64842;SDS011;51310;52.198;5.422;2022-12-20T01:11:16;5.05;;;2.28;;
64842;SDS011;51310;52.198;5.422;2022-12-20T01:14:00;5.82;;;2.30;;
64842;SDS011;51310;52.198;5.422;2022-12-20T01:16:40;3.55;;;2.40;;
64842;SDS011;51310;52.198;5.422;2022-12-20T01:19:13;4.60;;;2.25;;
64842;SDS011;51310;52.198;5.422;2022-12-20T01:21:42;4.88;;;2.53;;
64842;SDS011;51310;52.198;5.422;2022-12-20T01:24:18;4.47;;;2.42;;
64842;SDS011;51310;52.198;5.422;2022-12-20T01:26:45;6.50;;;2.88;;
64842;SDS011;51310;52.198;5.422;2022-12-20T01:29:11;5.25;;;2.70;;
64842;SDS011;51310;52.198;5.422;2022-12-20T01:31:38;4.90;;;2.38;;
64842;SDS011;51310;52.198;5.422;2022-12-20T01:34:04;7.55;;;3.30;;
64842;SDS011;51310;52.198;5.422;2022-12-20T01:36:32;5.50;;;2.63;;
64842;SDS011;51310;52.198;5.422;2022-12-20T01:39:06;5.28;;;2.58;;
64842;SDS011;51310;52.198;5.422;2022-12-20T01:41:37;3.65;;;2.50;;
64842;SDS011;51310;52.198;5.422;2022-12-20T01:46:43;4.53;;;2.65;;
64842;SDS011;51310;52.198;5.422;2022-12-20T01:51:47;5.97;;;2.97;;
64842;SDS011;51310;52.198;5.422;2022-12-20T01:54:32;4.88;;;2.60;;
64842;SDS011;51310;52.198;5.422;2022-12-20T01:57:16;5.35;;;2.88;;
64842;SDS011;51310;52.198;5.422;2022-12-20T01:59:51;5.60;;;2.80;;
64842;SDS011;51310;52.198;5.422;2022-12-20T02:02:20;5.93;;;3.60;;
64842;SDS011;51310;52.198;5.422;2022-12-20T02:04:46;6.70;;;3.22;;
64842;SDS011;51310;52.198;5.422;2022-12-20T02:07:14;7.07;;;3.30;;
64842;SDS011;51310;52.198;5.422;2022-12-20T02:09:48;5.65;;;3.38;;
64842;SDS011;51310;52.198;5.422;2022-12-20T02:12:19;6.78;;;3.50;;
64842;SDS011;51310;52.198;5.422;2022-12-20T02:24:15;5.00;;;3.17;;
64842;SDS011;51310;52.198;5.422;2022-12-20T02:30:31;5.28;;;3.22;;
64842;SDS011;51310;52.198;5.422;2022-12-20T02:33:05;5.88;;;3.38;;
64842;SDS011;51310;52.198;5.422;2022-12-20T02:35:36;7.05;;;3.40;;
64842;SDS011;51310;52.198;5.422;2022-12-20T02:38:50;4.68;;;2.90;;
64842;SDS011;51310;52.198;5.422;2022-12-20T02:41:02;8.15;;;3.75;;
64842;SDS011;51310;52.198;5.422;2022-12-20T02:43:36;7.78;;;3.83;;
64842;SDS011;51310;52.198;5.422;2022-12-20T02:46:25;6.85;;;3.90;;
64842;SDS011;51310;52.198;5.422;2022-12-20T02:48:52;5.40;;;3.25;;
64842;SDS011;51310;52.198;5.422;2022-12-20T02:51:26;8.73;;;4.10;;
64842;SDS011;51310;52.198;5.422;2022-12-20T02:53:56;7.45;;;3.72;;
64842;SDS011;51310;52.198;5.422;2022-12-20T02:56:34;9.07;;;3.97;;
64842;SDS011;51310;52.198;5.422;2022-12-20T02:59:16;8.70;;;4.10;;
64842;SDS011;51310;52.198;5.422;2022-12-20T03:01:53;7.43;;;3.88;;
64842;SDS011;51310;52.198;5.422;2022-12-20T03:04:22;6.60;;;3.30;;
64842;SDS011;51310;52.198;5.422;2022-12-20T03:09:33;7.00;;;3.80;;
64842;SDS011;51310;52.198;5.422;2022-12-20T03:12:04;9.02;;;3.55;;
64842;SDS011;51310;52.198;5.422;2022-12-20T03:14:31;5.53;;;3.57;;
64842;SDS011;51310;52.198;5.422;2022-12-20T03:16:57;6.22;;;3.45;;
64842;SDS011;51310;52.198;5.422;2022-12-20T03:19:23;6.88;;;3.85;;
64842;SDS011;51310;52.198;5.422;2022-12-20T03:21:49;5.53;;;3.67;;
64842;SDS011;51310;52.198;5.422;2022-12-20T03:24:16;6.93;;;3.78;;
64842;SDS011;51310;52.198;5.422;2022-12-20T03:26:42;5.80;;;3.65;;
64842;SDS011;51310;52.198;5.422;2022-12-20T03:29:08;6.45;;;3.55;;
64842;SDS011;51310;52.198;5.422;2022-12-20T03:31:35;5.40;;;3.53;;
64842;SDS011;51310;52.198;5.422;2022-12-20T03:34:01;10.27;;;3.53;;
64842;SDS011;51310;52.198;5.422;2022-12-20T03:36:28;8.00;;;4.17;;
64842;SDS011;51310;52.198;5.422;2022-12-20T03:38:54;6.57;;;3.88;;
64842;SDS011;51310;52.198;5.422;2022-12-20T03:41:20;6.72;;;3.63;;
64842;SDS011;51310;52.198;5.422;2022-12-20T03:43:47;5.13;;;3.27;;
64842;SDS011;51310;52.198;5.422;2022-12-20T03:46:14;4.53;;;3.20;;
64842;SDS011;51310;52.198;5.422;2022-12-20T03:48:40;7.43;;;3.60;;
64842;SDS011;51310;52.198;5.422;2022-12-20T03:51:06;4.22;;;3.08;;
64842;SDS011;51310;52.198;5.422;2022-12-20T03:53:32;5.38;;;3.83;;
64842;SDS011;51310;52.198;5.422;2022-12-20T03:55:58;4.65;;;3.20;;
64842;SDS011;51310;52.198;5.422;2022-12-20T03:58:24;5.57;;;3.22;;
64842;SDS011;51310;52.198;5.422;2022-12-20T04:00:50;8.07;;;3.37;;
64842;SDS011;51310;52.198;5.422;2022-12-20T04:03:16;4.78;;;3.17;;
64842;SDS011;51310;52.198;5.422;2022-12-20T04:05:42;5.28;;;3.35;;
64842;SDS011;51310;52.198;5.422;2022-12-20T04:08:08;7.03;;;3.35;;
64842;SDS011;51310;52.198;5.422;2022-12-20T04:10:34;6.00;;;3.67;;
64842;SDS011;51310;52.198;5.422;2022-12-20T04:13:23;5.13;;;3.13;;
64842;SDS011;51310;52.198;5.422;2022-12-20T04:15:48;5.77;;;2.90;;
64842;SDS011;51310;52.198;5.422;2022-12-20T04:18:14;8.63;;;4.83;;
64842;SDS011;51310;52.198;5.422;2022-12-20T04:20:40;5.28;;;3.25;;
64842;SDS011;51310;52.198;5.422;2022-12-20T04:23:06;6.90;;;2.85;;
64842;SDS011;51310;52.198;5.422;2022-12-20T04:25:32;5.78;;;3.38;;
64842;SDS011;51310;52.198;5.422;2022-12-20T04:27:58;6.20;;;3.40;;
64842;SDS011;51310;52.198;5.422;2022-12-20T04:30:23;7.93;;;3.28;;
64842;SDS011;51310;52.198;5.422;2022-12-20T04:32:49;6.63;;;3.70;;
64842;SDS011;51310;52.198;5.422;2022-12-20T04:35:18;7.68;;;3.30;;
64842;SDS011;51310;52.198;5.422;2022-12-20T04:37:45;8.27;;;2.97;;
64842;SDS011;51310;52.198;5.422;2022-12-20T04:40:11;7.90;;;3.15;;
64842;SDS011;51310;52.198;5.422;2022-12-20T04:42:37;6.57;;;3.00;;
64842;SDS011;51310;52.198;5.422;2022-12-20T04:45:03;5.93;;;3.20;;
64842;SDS011;51310;52.198;5.422;2022-12-20T04:47:30;6.95;;;3.38;;
64842;SDS011;51310;52.198;5.422;2022-12-20T04:49:56;6.40;;;3.20;;
64842;SDS011;51310;52.198;5.422;2022-12-20T04:52:21;6.40;;;3.03;;
64842;SDS011;51310;52.198;5.422;2022-12-20T04:55:06;4.85;;;3.05;;
64842;SDS011;51310;52.198;5.422;2022-12-20T04:57:33;5.53;;;3.00;;
64842;SDS011;51310;52.198;5.422;2022-12-20T04:59:58;7.00;;;2.80;;
64842;SDS011;51310;52.198;5.422;2022-12-20T05:02:24;4.73;;;2.60;;
64842;SDS011;51310;52.198;5.422;2022-12-20T05:04:50;5.20;;;2.20;;
64842;SDS011;51310;52.198;5.422;2022-12-20T05:07:16;5.27;;;2.70;;
64842;SDS011;51310;52.198;5.422;2022-12-20T05:09:42;8.18;;;3.08;;
64842;SDS011;51310;52.198;5.422;2022-12-20T05:12:08;7.47;;;3.53;;
64842;SDS011;51310;52.198;5.422;2022-12-20T05:14:33;4.78;;;2.78;;
64842;SDS011;51310;52.198;5.422;2022-12-20T05:16:59;6.25;;;3.35;;
64842;SDS011;51310;52.198;5.422;2022-12-20T05:19:25;5.35;;;3.25;;
64842;SDS011;51310;52.198;5.422;2022-12-20T05:21:51;4.43;;;3.22;;
64842;SDS011;51310;52.198;5.422;2022-12-20T05:24:35;6.50;;;3.42;;
64842;SDS011;51310;52.198;5.422;2022-12-20T05:27:20;8.27;;;3.40;;
64842;SDS011;51310;52.198;5.422;2022-12-20T05:29:46;8.77;;;3.63;;
64842;SDS011;51310;52.198;5.422;2022-12-20T05:32:12;6.03;;;3.20;;
64842;SDS011;51310;52.198;5.422;2022-12-20T05:34:37;8.60;;;4.10;;
64842;SDS011;51310;52.198;5.422;2022-12-20T05:37:03;5.30;;;3.38;;
64842;SDS011;51310;52.198;5.422;2022-12-20T05:39:29;7.20;;;3.00;;
64842;SDS011;51310;52.198;5.422;2022-12-20T05:41:55;5.88;;;3.72;;
64842;SDS011;51310;52.198;5.422;2022-12-20T05:44:21;6.97;;;3.50;;
64842;SDS011;51310;52.198;5.422;2022-12-20T05:46:47;4.67;;;3.50;;
64842;SDS011;51310;52.198;5.422;2022-12-20T05:49:13;5.57;;;3.40;;
64842;SDS011;51310;52.198;5.422;2022-12-20T05:51:38;7.00;;;3.78;;
64842;SDS011;51310;52.198;5.422;2022-12-20T05:54:04;4.60;;;3.13;;
64842;SDS011;51310;52.198;5.422;2022-12-20T05:56:30;5.13;;;3.03;;
64842;SDS011;51310;52.198;5.422;2022-12-20T05:58:56;6.00;;;3.30;;
64842;SDS011;51310;52.198;5.422;2022-12-20T06:01:23;5.65;;;3.70;;
64842;SDS011;51310;52.198;5.422;2022-12-20T06:03:49;8.95;;;3.70;;
64842;SDS011;51310;52.198;5.422;2022-12-20T06:06:15;5.85;;;3.30;;
64842;SDS011;51310;52.198;5.422;2022-12-20T06:08:42;9.45;;;3.50;;
64842;SDS011;51310;52.198;5.422;2022-12-20T06:11:08;7.30;;;3.40;;
64842;SDS011;51310;52.198;5.422;2022-12-20T06:13:34;5.43;;;3.33;;
64842;SDS011;51310;52.198;5.422;2022-12-20T06:16:00;5.25;;;3.30;;
64842;SDS011;51310;52.198;5.422;2022-12-20T06:18:26;4.55;;;2.90;;
64842;SDS011;51310;52.198;5.422;2022-12-20T06:20:52;6.18;;;3.15;;
64842;SDS011;51310;52.198;5.422;2022-12-20T06:23:19;7.70;;;3.38;;
64842;SDS011;51310;52.198;5.422;2022-12-20T06:25:45;6.40;;;3.08;;
64842;SDS011;51310;52.198;5.422;2022-12-20T06:28:11;6.75;;;3.30;;
64842;SDS011;51310;52.198;5.422;2022-12-20T06:30:37;8.23;;;3.42;;
64842;SDS011;51310;52.198;5.422;2022-12-20T06:33:03;6.65;;;3.60;;
64842;SDS011;51310;52.198;5.422;2022-12-20T06:35:29;5.95;;;2.80;;
64842;SDS011;51310;52.198;5.422;2022-12-20T06:37:55;6.22;;;2.85;;
64842;SDS011;51310;52.198;5.422;2022-12-20T06:40:21;7.85;;;2.85;;
64842;SDS011;51310;52.198;5.422;2022-12-20T06:42:48;4.38;;;2.58;;
64842;SDS011;51310;52.198;5.422;2022-12-20T06:45:17;4.25;;;2.80;;
64842;SDS011;51310;52.198;5.422;2022-12-20T06:47:43;6.30;;;3.35;;
64842;SDS011;51310;52.198;5.422;2022-12-20T06:50:09;4.90;;;2.70;;
64842;SDS011;51310;52.198;5.422;2022-12-20T06:52:35;5.25;;;2.78;;
64842;SDS011;51310;52.198;5.422;2022-12-20T06:55:01;11.68;;;3.28;;
64842;SDS011;51310;52.198;5.422;2022-12-20T06:57:27;6.63;;;2.45;;
64842;SDS011;51310;52.198;5.422;2022-12-20T06:59:53;5.33;;;2.60;;
64842;SDS011;51310;52.198;5.422;2022-12-20T07:02:19;4.00;;;2.67;;
64842;SDS011;51310;52.198;5.422;2022-12-20T07:04:45;4.45;;;2.83;;
64842;SDS011;51310;52.198;5.422;2022-12-20T07:07:11;7.45;;;2.72;;
64842;SDS011;51310;52.198;5.422;2022-12-20T07:09:38;5.45;;;3.40;;
64842;SDS011;51310;52.198;5.422;2022-12-20T07:12:05;7.90;;;2.60;;
64842;SDS011;51310;52.198;5.422;2022-12-20T07:14:35;7.60;;;2.90;;
64842;SDS011;51310;52.198;5.422;2022-12-20T07:17:01;7.00;;;2.53;;
64842;SDS011;51310;52.198;5.422;2022-12-20T07:19:29;5.53;;;2.60;;
64842;SDS011;51310;52.198;5.422;2022-12-20T07:21:55;7.03;;;2.80;;
64842;SDS011;51310;52.198;5.422;2022-12-20T07:24:20;4.50;;;2.43;;
64842;SDS011;51310;52.198;5.422;2022-12-20T07:26:46;5.70;;;2.97;;
64842;SDS011;51310;52.198;5.422;2022-12-20T07:29:12;7.28;;;2.83;;
64842;SDS011;51310;52.198;5.422;2022-12-20T07:31:38;6.50;;;2.70;;
64842;SDS011;51310;52.198;5.422;2022-12-20T07:34:04;4.70;;;2.22;;
64842;SDS011;51310;52.198;5.422;2022-12-20T07:36:30;3.72;;;1.92;;
64842;SDS011;51310;52.198;5.422;2022-12-20T07:38:56;6.22;;;2.28;;
64842;SDS011;51310;52.198;5.422;2022-12-20T07:41:22;6.85;;;2.40;;
64842;SDS011;51310;52.198;5.422;2022-12-20T07:43:49;3.90;;;2.45;;
64842;SDS011;51310;52.198;5.422;2022-12-20T07:46:16;4.65;;;2.25;;
64842;SDS011;51310;52.198;5.422;2022-12-20T07:48:42;5.72;;;2.50;;
64842;SDS011;51310;52.198;5.422;2022-12-20T07:51:11;6.00;;;2.40;;
64842;SDS011;51310;52.198;5.422;2022-12-20T07:54:14;4.90;;;2.13;;
64842;SDS011;51310;52.198;5.422;2022-12-20T07:56:51;5.10;;;2.13;;
64842;SDS011;51310;52.198;5.422;2022-12-20T07:59:25;5.53;;;2.40;;
64842;SDS011;51310;52.198;5.422;2022-12-20T08:02:03;5.65;;;2.33;;
64842;SDS011;51310;52.198;5.422;2022-12-20T08:04:32;4.80;;;2.25;;
64842;SDS011;51310;52.198;5.422;2022-12-20T08:06:58;3.88;;;1.95;;
64842;SDS011;51310;52.198;5.422;2022-12-20T08:09:27;6.93;;;2.55;;
64842;SDS011;51310;52.198;5.422;2022-12-20T08:12:00;5.55;;;2.20;;
64842;SDS011;51310;52.198;5.422;2022-12-20T08:14:27;4.65;;;2.25;;
64842;SDS011;51310;52.198;5.422;2022-12-20T08:16:53;4.07;;;2.20;;
64842;SDS011;51310;52.198;5.422;2022-12-20T08:19:19;5.57;;;2.43;;
64842;SDS011;51310;52.198;5.422;2022-12-20T08:21:45;7.97;;;2.55;;
64842;SDS011;51310;52.198;5.422;2022-12-20T08:24:12;5.10;;;2.13;;
64842;SDS011;51310;52.198;5.422;2022-12-20T08:26:40;3.50;;;2.13;;
64842;SDS011;51310;52.198;5.422;2022-12-20T08:29:06;4.85;;;1.85;;
64842;SDS011;51310;52.198;5.422;2022-12-20T08:31:40;4.20;;;2.03;;
64842;SDS011;51310;52.198;5.422;2022-12-20T08:34:06;6.20;;;2.38;;
64842;SDS011;51310;52.198;5.422;2022-12-20T08:36:33;5.75;;;2.45;;
64842;SDS011;51310;52.198;5.422;2022-12-20T08:39:05;3.72;;;1.92;;
64842;SDS011;51310;52.198;5.422;2022-12-20T08:41:35;7.30;;;2.00;;
64842;SDS011;51310;52.198;5.422;2022-12-20T08:44:01;4.00;;;1.88;;
64842;SDS011;51310;52.198;5.422;2022-12-20T08:46:29;6.13;;;2.40;;
64842;SDS011;51310;52.198;5.422;2022-12-20T08:48:55;4.78;;;2.10;;
64842;SDS011;51310;52.198;5.422;2022-12-20T08:51:21;7.20;;;2.10;;
64842;SDS011;51310;52.198;5.422;2022-12-20T08:53:47;4.25;;;1.73;;
64842;SDS011;51310;52.198;5.422;2022-12-20T08:56:16;3.80;;;2.28;;
64842;SDS011;51310;52.198;5.422;2022-12-20T08:58:43;3.90;;;2.05;;
64842;SDS011;51310;52.198;5.422;2022-12-20T09:01:12;5.78;;;1.60;;
64842;SDS011;51310;52.198;5.422;2022-12-20T09:03:42;6.03;;;2.20;;
64842;SDS011;51310;52.198;5.422;2022-12-20T09:06:11;3.80;;;2.38;;
64842;SDS011;51310;52.198;5.422;2022-12-20T09:08:45;5.65;;;2.10;;
64842;SDS011;51310;52.198;5.422;2022-12-20T09:11:17;3.63;;;1.90;;
64842;SDS011;51310;52.198;5.422;2022-12-20T09:13:50;5.87;;;2.70;;
64842;SDS011;51310;52.198;5.422;2022-12-20T09:16:21;5.50;;;2.22;;
64842;SDS011;51310;52.198;5.422;2022-12-20T09:18:53;6.30;;;2.75;;
64842;SDS011;51310;52.198;5.422;2022-12-20T09:21:23;4.03;;;2.30;;
64842;SDS011;51310;52.198;5.422;2022-12-20T09:23:49;8.98;;;2.85;;
64842;SDS011;51310;52.198;5.422;2022-12-20T09:26:18;6.15;;;2.92;;
64842;SDS011;51310;52.198;5.422;2022-12-20T09:28:48;11.50;;;2.60;;
64842;SDS011;51310;52.198;5.422;2022-12-20T09:31:16;7.70;;;2.92;;
64842;SDS011;51310;52.198;5.422;2022-12-20T09:33:46;7.20;;;3.10;;
64842;SDS011;51310;52.198;5.422;2022-12-20T09:36:13;4.87;;;2.63;;
64842;SDS011;51310;52.198;5.422;2022-12-20T09:38:45;6.68;;;2.80;;
64842;SDS011;51310;52.198;5.422;2022-12-20T09:41:46;8.95;;;3.00;;
64842;SDS011;51310;52.198;5.422;2022-12-20T09:46:59;7.55;;;3.30;;
64842;SDS011;51310;52.198;5.422;2022-12-20T09:49:35;7.70;;;2.97;;
64842;SDS011;51310;52.198;5.422;2022-12-20T10:00:55;7.53;;;2.90;;
64842;SDS011;51310;52.198;5.422;2022-12-20T10:03:25;7.38;;;3.40;;
64842;SDS011;51310;52.198;5.422;2022-12-20T10:05:59;5.53;;;2.80;;
64842;SDS011;51310;52.198;5.422;2022-12-20T10:23:56;7.35;;;3.30;;
64842;SDS011;51310;52.198;5.422;2022-12-20T10:26:54;8.75;;;3.67;;
64842;SDS011;51310;52.198;5.422;2022-12-20T10:29:26;8.57;;;3.42;;
64842;SDS011;51310;52.198;5.422;2022-12-20T10:31:53;6.23;;;3.30;;
64842;SDS011;51310;52.198;5.422;2022-12-20T10:34:26;7.90;;;3.85;;
64842;SDS011;51310;52.198;5.422;2022-12-20T10:37:11;7.18;;;3.20;;
64842;SDS011;51310;52.198;5.422;2022-12-20T10:39:45;7.22;;;3.30;;
64842;SDS011;51310;52.198;5.422;2022-12-20T10:45:16;7.63;;;3.40;;
64842;SDS011;51310;52.198;5.422;2022-12-20T10:48:05;9.20;;;3.58;;
64842;SDS011;51310;52.198;5.422;2022-12-20T10:50:59;6.77;;;3.57;;
64842;SDS011;51310;52.198;5.422;2022-12-20T10:53:35;8.30;;;3.50;;
64842;SDS011;51310;52.198;5.422;2022-12-20T10:56:30;8.13;;;3.60;;
64842;SDS011;51310;52.198;5.422;2022-12-20T11:01:42;5.72;;;3.20;;
64842;SDS011;51310;52.198;5.422;2022-12-20T11:04:44;4.20;;;3.03;;
64842;SDS011;51310;52.198;5.422;2022-12-20T11:07:20;6.07;;;3.33;;
64842;SDS011;51310;52.198;5.422;2022-12-20T11:09:59;9.50;;;3.40;;
64842;SDS011;51310;52.198;5.422;2022-12-20T11:12:53;5.80;;;3.20;;
64842;SDS011;51310;52.198;5.422;2022-12-20T11:15:25;9.05;;;4.32;;
64842;SDS011;51310;52.198;5.422;2022-12-20T11:18:00;7.80;;;3.67;;
64842;SDS011;51310;52.198;5.422;2022-12-20T11:27:14;8.88;;;3.75;;
64842;SDS011;51310;52.198;5.422;2022-12-20T11:30:20;5.57;;;3.53;;
64842;SDS011;51310;52.198;5.422;2022-12-20T11:36:54;6.63;;;3.40;;
64842;SDS011;51310;52.198;5.422;2022-12-20T11:39:56;9.00;;;4.05;;
64842;SDS011;51310;52.198;5.422;2022-12-20T11:42:57;9.73;;;3.63;;
64842;SDS011;51310;52.198;5.422;2022-12-20T11:51:22;7.57;;;3.80;;
64842;SDS011;51310;52.198;5.422;2022-12-20T11:56:51;10.35;;;4.35;;
64842;SDS011;51310;52.198;5.422;2022-12-20T11:59:40;8.00;;;4.78;;
64842;SDS011;51310;52.198;5.422;2022-12-20T12:05:23;12.30;;;5.45;;
64842;SDS011;51310;52.198;5.422;2022-12-20T12:08:29;6.85;;;4.55;;
64842;SDS011;51310;52.198;5.422;2022-12-20T12:11:04;7.93;;;4.77;;
64842;SDS011;51310;52.198;5.422;2022-12-20T12:13:55;8.85;;;4.93;;
64842;SDS011;51310;52.198;5.422;2022-12-20T12:16:31;8.40;;;5.03;;
64842;SDS011;51310;52.198;5.422;2022-12-20T12:19:07;8.15;;;4.70;;
64842;SDS011;51310;52.198;5.422;2022-12-20T12:21:42;11.70;;;5.68;;
64842;SDS011;51310;52.198;5.422;2022-12-20T12:27:06;8.73;;;5.30;;
64842;SDS011;51310;52.198;5.422;2022-12-20T12:29:54;7.25;;;5.20;;
64842;SDS011;51310;52.198;5.422;2022-12-20T12:32:28;7.70;;;4.95;;
64842;SDS011;51310;52.198;5.422;2022-12-20T12:35:29;6.43;;;4.80;;
64842;SDS011;51310;52.198;5.422;2022-12-20T12:45:14;7.13;;;4.90;;
64842;SDS011;51310;52.198;5.422;2022-12-20T12:47:50;8.82;;;4.93;;
64842;SDS011;51310;52.198;5.422;2022-12-20T12:50:31;9.07;;;5.35;;
64842;SDS011;51310;52.198;5.422;2022-12-20T12:53:07;12.43;;;5.63;;
64842;SDS011;51310;52.198;5.422;2022-12-20T12:56:46;7.15;;;5.22;;
64842;SDS011;51310;52.198;5.422;2022-12-20T13:20:27;7.72;;;6.03;;
64842;SDS011;51310;52.198;5.422;2022-12-20T13:25:47;7.53;;;5.85;;
64842;SDS011;51310;52.198;5.422;2022-12-20T13:31:28;12.10;;;6.05;;
64842;SDS011;51310;52.198;5.422;2022-12-20T13:42:16;8.40;;;5.95;;
64842;SDS011;51310;52.198;5.422;2022-12-20T13:45:00;8.30;;;5.88;;
64842;SDS011;51310;52.198;5.422;2022-12-20T13:47:31;7.85;;;5.90;;
64842;SDS011;51310;52.198;5.422;2022-12-20T13:50:26;9.52;;;6.00;;
64842;SDS011;51310;52.198;5.422;2022-12-20T13:53:20;8.02;;;5.75;;
64842;SDS011;51310;52.198;5.422;2022-12-20T13:55:51;8.60;;;5.28;;
64842;SDS011;51310;52.198;5.422;2022-12-20T13:58:25;9.98;;;6.00;;
64842;SDS011;51310;52.198;5.422;2022-12-20T14:01:09;6.10;;;5.28;;
64842;SDS011;51310;52.198;5.422;2022-12-20T14:03:43;7.78;;;5.85;;
64842;SDS011;51310;52.198;5.422;2022-12-20T14:06:12;7.88;;;5.90;;
64842;SDS011;51310;52.198;5.422;2022-12-20T14:08:43;7.38;;;5.47;;
64842;SDS011;51310;52.198;5.422;2022-12-20T14:13:57;8.52;;;5.40;;
64842;SDS011;51310;52.198;5.422;2022-12-20T14:16:31;6.93;;;5.70;;
64842;SDS011;51310;52.198;5.422;2022-12-20T14:19:04;9.05;;;5.57;;
64842;SDS011;51310;52.198;5.422;2022-12-20T14:21:39;7.32;;;5.78;;
64842;SDS011;51310;52.198;5.422;2022-12-20T14:24:14;10.67;;;6.03;;
64842;SDS011;51310;52.198;5.422;2022-12-20T14:26:46;6.85;;;5.57;;
64842;SDS011;51310;52.198;5.422;2022-12-20T14:29:18;8.70;;;6.65;;
64842;SDS011;51310;52.198;5.422;2022-12-20T14:31:53;9.00;;;5.95;;
64842;SDS011;51310;52.198;5.422;2022-12-20T14:34:25;7.72;;;5.72;;
64842;SDS011;51310;52.198;5.422;2022-12-20T14:42:36;7.18;;;5.40;;
64842;SDS011;51310;52.198;5.422;2022-12-20T14:47:33;7.97;;;5.90;;
64842;SDS011;51310;52.198;5.422;2022-12-20T14:50:02;11.45;;;7.47;;
64842;SDS011;51310;52.198;5.422;2022-12-20T14:52:42;8.25;;;6.47;;
64842;SDS011;51310;52.198;5.422;2022-12-20T14:55:17;11.40;;;7.78;;
64842;SDS011;51310;52.198;5.422;2022-12-20T14:57:52;10.20;;;6.88;;
64842;SDS011;51310;52.198;5.422;2022-12-20T15:00:31;9.95;;;7.57;;
64842;SDS011;51310;52.198;5.422;2022-12-20T15:03:00;11.23;;;7.43;;
64842;SDS011;51310;52.198;5.422;2022-12-20T15:05:46;11.30;;;7.25;;
64842;SDS011;51310;52.198;5.422;2022-12-20T15:16:18;10.80;;;8.23;;
64842;SDS011;51310;52.198;5.422;2022-12-20T15:18:49;10.90;;;8.00;;
64842;SDS011;51310;52.198;5.422;2022-12-20T15:21:27;9.60;;;7.65;;
64842;SDS011;51310;52.198;5.422;2022-12-20T15:24:05;12.50;;;8.65;;
64842;SDS011;51310;52.198;5.422;2022-12-20T15:26:38;10.88;;;8.30;;
64842;SDS011;51310;52.198;5.422;2022-12-20T15:29:05;13.53;;;8.93;;
64842;SDS011;51310;52.198;5.422;2022-12-20T15:31:34;12.77;;;10.18;;
64842;SDS011;51310;52.198;5.422;2022-12-20T15:34:05;12.73;;;9.13;;
64842;SDS011;51310;52.198;5.422;2022-12-20T15:36:51;12.77;;;9.20;;
64842;SDS011;51310;52.198;5.422;2022-12-20T15:39:17;13.13;;;9.88;;
64842;SDS011;51310;52.198;5.422;2022-12-20T15:41:44;13.85;;;10.45;;
64842;SDS011;51310;52.198;5.422;2022-12-20T15:44:18;15.88;;;10.95;;
64842;SDS011;51310;52.198;5.422;2022-12-20T15:46:50;13.73;;;10.05;;
64842;SDS011;51310;52.198;5.422;2022-12-20T15:49:18;13.90;;;10.30;;
64842;SDS011;51310;52.198;5.422;2022-12-20T15:51:52;13.60;;;10.43;;
64842;SDS011;51310;52.198;5.422;2022-12-20T15:56:57;12.80;;;9.80;;
64842;SDS011;51310;52.198;5.422;2022-12-20T15:59:31;15.52;;;11.02;;
64842;SDS011;51310;52.198;5.422;2022-12-20T16:01:58;15.07;;;11.37;;
64842;SDS011;51310;52.198;5.422;2022-12-20T16:04:24;15.95;;;11.02;;
64842;SDS011;51310;52.198;5.422;2022-12-20T16:06:52;15.27;;;11.65;;
64842;SDS011;51310;52.198;5.422;2022-12-20T16:09:19;15.27;;;11.10;;
64842;SDS011;51310;52.198;5.422;2022-12-20T16:11:46;15.63;;;11.30;;
64842;SDS011;51310;52.198;5.422;2022-12-20T16:14:15;13.80;;;11.65;;
64842;SDS011;51310;52.198;5.422;2022-12-20T16:16:48;18.55;;;12.43;;
64842;SDS011;51310;52.198;5.422;2022-12-20T16:19:14;17.15;;;12.48;;
64842;SDS011;51310;52.198;5.422;2022-12-20T16:21:47;18.15;;;12.98;;
64842;SDS011;51310;52.198;5.422;2022-12-20T16:24:17;17.23;;;12.88;;
64842;SDS011;51310;52.198;5.422;2022-12-20T16:26:47;19.35;;;13.20;;
64842;SDS011;51310;52.198;5.422;2022-12-20T16:29:13;17.33;;;13.43;;
64842;SDS011;51310;52.198;5.422;2022-12-20T16:31:40;18.98;;;13.60;;
64842;SDS011;51310;52.198;5.422;2022-12-20T16:34:14;18.05;;;13.50;;
64842;SDS011;51310;52.198;5.422;2022-12-20T16:36:42;17.35;;;13.30;;
64842;SDS011;51310;52.198;5.422;2022-12-20T16:39:09;17.85;;;12.77;;
64842;SDS011;51310;52.198;5.422;2022-12-20T16:41:36;16.23;;;12.63;;
64842;SDS011;51310;52.198;5.422;2022-12-20T16:44:05;18.35;;;13.23;;
64842;SDS011;51310;52.198;5.422;2022-12-20T16:46:38;17.23;;;12.95;;
64842;SDS011;51310;52.198;5.422;2022-12-20T16:49:04;18.40;;;12.52;;
64842;SDS011;51310;52.198;5.422;2022-12-20T16:51:31;17.40;;;12.80;;
64842;SDS011;51310;52.198;5.422;2022-12-20T16:54:18;16.05;;;12.07;;
64842;SDS011;51310;52.198;5.422;2022-12-20T16:56:47;15.48;;;12.45;;
64842;SDS011;51310;52.198;5.422;2022-12-20T16:59:22;14.67;;;11.67;;
64842;SDS011;51310;52.198;5.422;2022-12-20T17:01:50;15.70;;;11.80;;
64842;SDS011;51310;52.198;5.422;2022-12-20T17:04:20;14.47;;;11.30;;
64842;SDS011;51310;52.198;5.422;2022-12-20T17:06:48;15.00;;;10.50;;
64842;SDS011;51310;52.198;5.422;2022-12-20T17:09:14;14.90;;;10.70;;
64842;SDS011;51310;52.198;5.422;2022-12-20T17:11:40;13.80;;;10.80;;
64842;SDS011;51310;52.198;5.422;2022-12-20T17:14:09;15.70;;;11.33;;
64842;SDS011;51310;52.198;5.422;2022-12-20T17:16:37;15.63;;;10.73;;
64842;SDS011;51310;52.198;5.422;2022-12-20T17:19:04;12.90;;;10.13;;
64842;SDS011;51310;52.198;5.422;2022-12-20T17:21:37;12.80;;;9.80;;
64842;SDS011;51310;52.198;5.422;2022-12-20T17:24:16;16.93;;;9.73;;
64842;SDS011;51310;52.198;5.422;2022-12-20T17:26:45;15.38;;;10.27;;
64842;SDS011;51310;52.198;5.422;2022-12-20T17:29:11;15.38;;;9.80;;
64842;SDS011;51310;52.198;5.422;2022-12-20T17:31:38;12.67;;;9.93;;